Time;durP1;ratioP1;P1;durP2;ratioP2;P2;SDS_P1;SDS_P2;PMS_P1;PMS_P2;Temp;Humidity;BMP_temperature;BMP_pressure;BME280_temperature;BME280_humidity;BME280_pressure;Samples;Min_cycle;Max_cycle;Signal;HPM_P1;HPM_P2
2023/04/04 00:00:33;;;;;;;6.22;2.40;;;3.10;99.90;;;;;;5053863;28;20531;-65
2023/04/04 00:02:58;;;;;;;5.07;2.15;;;3.10;99.90;;;;;;5059096;28;20079;-65
2023/04/04 00:05:24;;;;;;;3.88;2.00;;;3.10;99.90;;;;;;5064924;28;20270;-65
2023/04/04 00:07:50;;;;;;;4.70;2.10;;;3.10;99.90;;;;;;5062509;28;20124;-65
2023/04/04 00:10:16;;;;;;;5.35;2.08;;;3.00;99.90;;;;;;5057664;28;20131;-65
2023/04/04 00:12:42;;;;;;;6.88;2.38;;;3.00;99.90;;;;;;5056479;28;20045;-65
2023/04/04 00:15:08;;;;;;;4.07;1.83;;;3.00;99.90;;;;;;5065428;28;20040;-65
2023/04/04 00:17:34;;;;;;;7.05;2.50;;;2.90;99.90;;;;;;5062916;28;20047;-65
2023/04/04 00:20:00;;;;;;;4.07;2.10;;;2.90;99.90;;;;;;5055309;28;20044;-65
2023/04/04 00:22:27;;;;;;;6.93;2.50;;;2.90;99.90;;;;;;5051294;28;20095;-65
2023/04/04 00:24:52;;;;;;;4.95;2.20;;;2.90;99.90;;;;;;5060604;28;20158;-65
2023/04/04 00:27:18;;;;;;;6.28;2.47;;;2.90;99.90;;;;;;5064718;28;20115;-65
2023/04/04 00:29:44;;;;;;;6.72;2.30;;;2.80;99.90;;;;;;5052498;28;20053;-65
2023/04/04 00:32:10;;;;;;;6.07;2.45;;;2.80;99.90;;;;;;5060218;28;20041;-65
2023/04/04 00:34:35;;;;;;;7.40;2.30;;;2.80;99.90;;;;;;5055562;28;20442;-65
2023/04/04 00:37:01;;;;;;;5.93;2.05;;;2.80;99.90;;;;;;5057612;28;20396;-65
2023/04/04 00:39:27;;;;;;;5.10;2.38;;;2.70;99.90;;;;;;5060097;28;20037;-65
2023/04/04 00:41:53;;;;;;;6.70;2.45;;;2.70;99.90;;;;;;5069101;28;20033;-65
2023/04/04 00:44:18;;;;;;;4.68;2.22;;;2.70;99.90;;;;;;5070013;28;20064;-65
2023/04/04 00:46:44;;;;;;;4.93;2.47;;;2.70;99.90;;;;;;5063329;28;20119;-65
2023/04/04 00:49:10;;;;;;;6.25;2.60;;;2.70;99.90;;;;;;5071505;28;20072;-65
2023/04/04 00:51:36;;;;;;;4.85;2.38;;;2.70;99.90;;;;;;5072150;28;20109;-65
2023/04/04 00:54:02;;;;;;;5.82;2.05;;;2.70;99.90;;;;;;5064813;28;20082;-65
2023/04/04 00:56:30;;;;;;;5.75;2.78;;;2.60;99.90;;;;;;5066696;28;20060;-65
2023/04/04 00:58:56;;;;;;;4.95;2.20;;;2.60;99.90;;;;;;5055206;28;20048;-65
2023/04/04 01:01:24;;;;;;;6.72;2.40;;;2.60;99.90;;;;;;5054601;28;20134;-65
2023/04/04 01:03:50;;;;;;;6.35;2.80;;;2.60;99.90;;;;;;5059116;28;20108;-65
2023/04/04 01:06:16;;;;;;;6.15;2.30;;;2.60;99.90;;;;;;5061344;28;20116;-65
2023/04/04 01:08:43;;;;;;;7.05;2.70;;;2.50;99.90;;;;;;5064424;28;20119;-65
2023/04/04 01:11:09;;;;;;;5.72;2.58;;;2.50;99.90;;;;;;5065820;28;20422;-65
2023/04/04 01:13:35;;;;;;;5.60;2.70;;;2.50;99.90;;;;;;5062586;28;20066;-65
2023/04/04 01:16:01;;;;;;;8.05;2.35;;;2.40;99.90;;;;;;5062925;28;20048;-65
2023/04/04 01:18:28;;;;;;;7.35;2.80;;;2.50;99.90;;;;;;5062813;28;20133;-65
2023/04/04 01:21:17;;;;;;;7.97;3.05;;;2.40;99.90;;;;;;5068759;28;20079;-65
2023/04/04 01:23:50;;;;;;;5.28;2.80;;;2.40;99.90;;;;;;5062297;28;20048;-65
2023/04/04 01:26:16;;;;;;;6.22;3.00;;;2.30;99.90;;;;;;5062922;28;20032;-65
2023/04/04 01:28:42;;;;;;;6.47;2.83;;;2.30;99.90;;;;;;5064976;28;20485;-65
2023/04/04 01:31:11;;;;;;;5.88;2.90;;;2.40;99.90;;;;;;5054501;28;20450;-65
2023/04/04 01:33:44;;;;;;;7.65;3.25;;;2.30;99.90;;;;;;5059990;28;20052;-65
2023/04/04 01:36:17;;;;;;;7.93;3.45;;;2.30;99.90;;;;;;5059080;28;20078;-65
2023/04/04 01:38:46;;;;;;;7.72;3.38;;;2.30;99.90;;;;;;5062899;28;20048;-65
2023/04/04 01:41:13;;;;;;;6.97;3.20;;;2.20;99.90;;;;;;5069788;28;20406;-65
2023/04/04 01:43:39;;;;;;;5.85;2.97;;;2.30;99.90;;;;;;5062096;28;20033;-65
2023/04/04 01:46:05;;;;;;;7.93;3.17;;;2.30;99.90;;;;;;5061109;28;20353;-65
2023/04/04 01:48:31;;;;;;;6.35;2.92;;;2.20;99.90;;;;;;5068559;28;20078;-65
2023/04/04 01:50:57;;;;;;;5.45;3.00;;;2.20;99.90;;;;;;5058766;28;20041;-65
2023/04/04 01:53:22;;;;;;;8.27;3.50;;;2.20;99.90;;;;;;5058403;28;20048;-65
2023/04/04 01:55:48;;;;;;;6.05;3.13;;;2.20;99.90;;;;;;5054232;28;20037;-65
2023/04/04 01:58:14;;;;;;;8.05;3.55;;;2.20;99.90;;;;;;5065843;28;20033;-65
2023/04/04 02:00:40;;;;;;;7.00;3.53;;;2.20;99.90;;;;;;5058340;28;20036;-65
2023/04/04 02:03:06;;;;;;;9.85;3.33;;;2.20;99.90;;;;;;5067352;28;20132;-65
2023/04/04 02:05:31;;;;;;;7.38;3.08;;;2.10;99.90;;;;;;5052078;28;20516;-65
2023/04/04 02:07:57;;;;;;;8.45;3.45;;;2.10;99.90;;;;;;5063063;28;20144;-65
2023/04/04 02:10:23;;;;;;;5.68;3.17;;;2.00;99.90;;;;;;5064080;28;20132;-65
2023/04/04 02:12:52;;;;;;;6.95;3.15;;;2.00;99.90;;;;;;5057286;28;20113;-65
2023/04/04 02:15:18;;;;;;;6.60;3.40;;;2.00;99.90;;;;;;5054916;28;20364;-65
2023/04/04 02:17:47;;;;;;;7.68;3.30;;;2.00;99.90;;;;;;5058124;28;20060;-65
2023/04/04 02:20:12;;;;;;;9.02;3.63;;;2.00;99.90;;;;;;5062247;28;20076;-65
2023/04/04 02:22:38;;;;;;;7.18;3.63;;;2.00;99.90;;;;;;5066962;28;20075;-65
2023/04/04 02:25:04;;;;;;;6.18;3.22;;;1.90;99.90;;;;;;5061848;28;20090;-65
2023/04/04 02:27:30;;;;;;;7.32;3.47;;;1.90;99.90;;;;;;5059914;28;20480;-65
2023/04/04 02:29:55;;;;;;;7.55;3.67;;;1.90;99.90;;;;;;5059307;28;20392;-65
2023/04/04 02:32:22;;;;;;;8.77;3.45;;;1.90;99.90;;;;;;5056708;28;20139;-65
2023/04/04 02:34:47;;;;;;;9.18;4.43;;;1.90;99.90;;;;;;5055612;28;20515;-65
2023/04/04 02:37:13;;;;;;;6.38;3.20;;;1.80;99.90;;;;;;5059641;28;20161;-65
2023/04/04 02:39:39;;;;;;;9.40;3.20;;;1.80;99.90;;;;;;5066958;28;20376;-65
2023/04/04 02:42:05;;;;;;;7.20;3.80;;;1.80;99.90;;;;;;5063958;28;20083;-64
2023/04/04 02:44:30;;;;;;;6.57;3.50;;;1.80;99.90;;;;;;5063586;28;20040;-64
2023/04/04 02:46:56;;;;;;;7.32;3.97;;;1.80;99.90;;;;;;5063062;28;20040;-65
2023/04/04 02:49:22;;;;;;;6.97;3.40;;;1.70;99.90;;;;;;5066207;28;20995;-65
2023/04/04 02:51:47;;;;;;;7.95;3.35;;;1.70;99.90;;;;;;5063620;28;20063;-65
2023/04/04 02:54:13;;;;;;;6.63;3.65;;;1.70;99.90;;;;;;5060333;28;20037;-65
2023/04/04 02:56:38;;;;;;;9.45;3.50;;;1.70;99.90;;;;;;5058837;28;20053;-65
2023/04/04 02:59:04;;;;;;;7.43;3.72;;;1.60;99.90;;;;;;5053372;28;20799;-65
2023/04/04 03:01:30;;;;;;;7.72;3.85;;;1.60;99.90;;;;;;5055429;28;20146;-65
2023/04/04 03:03:55;;;;;;;8.45;3.92;;;1.60;99.90;;;;;;5055537;28;20254;-65
2023/04/04 03:06:21;;;;;;;9.00;3.83;;;1.60;99.90;;;;;;5059940;28;20112;-65
2023/04/04 03:08:47;;;;;;;11.48;3.83;;;1.60;99.90;;;;;;5068986;28;20062;-64
2023/04/04 03:11:20;;;;;;;7.70;3.53;;;1.60;99.90;;;;;;5065985;28;20044;-64
2023/04/04 03:13:45;;;;;;;8.50;3.65;;;1.60;99.90;;;;;;5063133;28;20044;-65
2023/04/04 03:16:12;;;;;;;6.32;3.50;;;1.60;99.90;;;;;;5059440;28;20120;-65
2023/04/04 03:18:37;;;;;;;9.38;3.83;;;1.60;99.90;;;;;;5062269;28;20160;-65
2023/04/04 03:21:03;;;;;;;8.05;3.75;;;1.50;99.90;;;;;;5062284;28;20150;-65
2023/04/04 03:23:29;;;;;;;6.60;3.72;;;1.50;99.90;;;;;;5050711;28;20037;-65
2023/04/04 03:25:54;;;;;;;7.68;4.32;;;1.50;99.90;;;;;;5059472;28;20086;-65
2023/04/04 03:28:20;;;;;;;8.02;4.15;;;1.50;99.90;;;;;;5067492;28;20048;-65
2023/04/04 03:30:46;;;;;;;6.90;3.47;;;1.50;99.90;;;;;;5061605;28;20416;-65
2023/04/04 03:33:12;;;;;;;8.57;4.00;;;1.40;99.90;;;;;;5061921;28;20091;-64
2023/04/04 03:35:38;;;;;;;7.75;3.70;;;1.40;99.90;;;;;;5053454;28;20036;-65
2023/04/04 03:38:04;;;;;;;7.15;3.50;;;1.40;99.90;;;;;;5078041;28;20045;-65
2023/04/04 03:40:30;;;;;;;8.23;3.60;;;1.40;99.90;;;;;;5054696;28;20045;-65
2023/04/04 03:42:55;;;;;;;7.45;3.70;;;1.30;99.90;;;;;;5062899;28;20098;-64
2023/04/04 03:45:21;;;;;;;8.05;3.88;;;1.30;99.90;;;;;;5067465;28;20437;-65
2023/04/04 03:47:47;;;;;;;8.45;4.38;;;1.30;99.90;;;;;;5056147;28;20036;-65
2023/04/04 03:50:12;;;;;;;8.73;3.72;;;1.30;99.90;;;;;;5051309;28;20068;-65
2023/04/04 03:52:41;;;;;;;8.68;4.28;;;1.30;99.90;;;;;;5063905;28;20529;-65
2023/04/04 03:55:07;;;;;;;7.85;3.70;;;1.30;99.90;;;;;;5059907;28;20117;-65
2023/04/04 03:57:33;;;;;;;9.85;4.10;;;1.20;99.90;;;;;;5055452;28;20074;-65
2023/04/04 03:59:58;;;;;;;8.50;4.10;;;1.20;99.90;;;;;;5058496;28;20037;-65
2023/04/04 04:02:24;;;;;;;7.47;3.92;;;1.20;99.90;;;;;;5056848;28;20045;-65
2023/04/04 04:04:50;;;;;;;9.77;4.32;;;1.20;99.90;;;;;;5068018;28;22207;-65
2023/04/04 04:07:15;;;;;;;8.27;4.13;;;1.20;99.90;;;;;;5063488;28;20037;-65
2023/04/04 04:09:41;;;;;;;10.75;4.60;;;1.10;99.90;;;;;;5063267;28;20036;-65
2023/04/04 04:12:06;;;;;;;8.48;4.47;;;1.10;99.90;;;;;;5057309;28;20040;-65
2023/04/04 04:14:32;;;;;;;10.35;4.68;;;1.10;99.90;;;;;;5065491;28;20068;-65
2023/04/04 04:16:58;;;;;;;9.45;4.07;;;1.10;99.90;;;;;;5066149;28;20102;-65
2023/04/04 04:19:23;;;;;;;9.73;4.63;;;1.10;99.90;;;;;;5057650;28;20069;-65
2023/04/04 04:21:49;;;;;;;9.27;4.43;;;1.10;99.90;;;;;;5058632;28;20416;-65
2023/04/04 04:24:15;;;;;;;13.00;4.93;;;1.10;99.90;;;;;;5059291;28;20052;-65
2023/04/04 04:26:40;;;;;;;10.35;4.10;;;1.10;99.90;;;;;;5050450;28;20457;-65
2023/04/04 04:29:06;;;;;;;10.35;4.53;;;1.00;99.90;;;;;;5053440;28;20060;-65
2023/04/04 04:31:32;;;;;;;8.90;4.57;;;1.10;99.90;;;;;;5057976;28;20059;-65
2023/04/04 04:33:58;;;;;;;8.82;4.45;;;1.00;99.90;;;;;;5060410;28;20035;-65
2023/04/04 04:36:23;;;;;;;9.30;4.88;;;1.00;99.90;;;;;;5062571;28;20048;-65
2023/04/04 04:38:49;;;;;;;9.70;4.65;;;1.00;99.90;;;;;;5066269;28;20037;-65
2023/04/04 04:41:15;;;;;;;7.10;3.90;;;1.00;99.90;;;;;;5063115;28;20083;-65
2023/04/04 04:43:41;;;;;;;7.78;4.47;;;1.00;99.90;;;;;;5062079;28;20398;-65
2023/04/04 04:46:09;;;;;;;10.35;4.40;;;1.00;99.90;;;;;;5056551;28;20033;-65
2023/04/04 04:48:35;;;;;;;9.38;4.63;;;0.90;99.90;;;;;;5053928;28;20037;-65
2023/04/04 04:51:01;;;;;;;9.32;4.80;;;0.80;99.90;;;;;;5058779;28;20060;-66
2023/04/04 04:53:26;;;;;;;9.07;4.93;;;0.90;99.90;;;;;;5058628;28;20483;-65
2023/04/04 04:55:52;;;;;;;10.93;4.70;;;0.90;99.90;;;;;;5058604;28;20056;-65
2023/04/04 04:58:21;;;;;;;12.13;4.93;;;0.90;99.90;;;;;;5057721;28;20036;-65
2023/04/04 05:00:47;;;;;;;10.32;5.28;;;0.90;99.90;;;;;;5061019;28;20135;-64
2023/04/04 05:03:12;;;;;;;11.25;5.30;;;0.90;99.90;;;;;;5054997;28;20154;-66
2023/04/04 05:05:38;;;;;;;9.60;4.93;;;0.90;99.90;;;;;;5061462;28;20032;-65
2023/04/04 05:08:04;;;;;;;13.93;5.63;;;0.90;99.90;;;;;;5062505;28;20097;-64
2023/04/04 05:10:30;;;;;;;10.32;4.95;;;0.90;99.90;;;;;;5059185;28;20179;-65
2023/04/04 05:12:56;;;;;;;12.80;5.35;;;0.90;99.90;;;;;;5064024;28;20379;-65
2023/04/04 05:15:24;;;;;;;10.05;5.30;;;0.90;99.90;;;;;;5065303;28;20116;-65
2023/04/04 05:17:50;;;;;;;11.48;5.18;;;0.90;99.90;;;;;;5054182;28;20053;-65
2023/04/04 05:20:15;;;;;;;9.35;4.65;;;0.90;99.90;;;;;;5059509;28;20051;-64
2023/04/04 05:22:44;;;;;;;10.05;4.72;;;0.90;99.90;;;;;;5058945;28;20104;-65
2023/04/04 05:25:11;;;;;;;8.32;4.60;;;0.90;99.90;;;;;;5060135;28;20049;-65
2023/04/04 05:27:37;;;;;;;11.43;5.75;;;0.90;99.90;;;;;;5063909;28;20033;-65
2023/04/04 05:30:03;;;;;;;13.05;6.50;;;0.90;99.90;;;;;;5059970;28;20484;-65
2023/04/04 05:32:29;;;;;;;10.05;6.00;;;0.90;99.90;;;;;;5057701;28;20044;-65
2023/04/04 05:34:55;;;;;;;11.05;6.13;;;1.00;99.90;;;;;;5062083;28;20117;-65
2023/04/04 05:37:20;;;;;;;11.15;6.20;;;1.00;99.90;;;;;;5069117;28;20056;-64
2023/04/04 05:39:46;;;;;;;10.05;5.43;;;1.10;99.90;;;;;;5068594;28;20514;-66
2023/04/04 05:42:12;;;;;;;9.27;4.75;;;1.10;99.90;;;;;;5061849;28;20397;-65
2023/04/04 05:44:37;;;;;;;11.25;5.22;;;1.20;99.90;;;;;;5069940;28;20048;-66
2023/04/04 05:47:03;;;;;;;8.52;4.65;;;1.20;99.90;;;;;;5057524;28;20396;-64
2023/04/04 05:49:28;;;;;;;7.97;4.22;;;1.30;99.90;;;;;;5065407;28;20105;-65
2023/04/04 05:51:55;;;;;;;7.35;4.30;;;1.40;99.90;;;;;;5066601;28;20045;-65
2023/04/04 05:54:21;;;;;;;9.43;5.45;;;1.40;99.90;;;;;;5053099;28;20544;-64
2023/04/04 05:56:47;;;;;;;12.05;5.60;;;1.50;99.90;;;;;;5055048;28;20368;-65
2023/04/04 05:59:13;;;;;;;10.20;5.65;;;1.40;99.90;;;;;;5069128;28;20041;-64
2023/04/04 06:01:39;;;;;;;11.23;5.63;;;1.40;99.90;;;;;;5061464;28;20501;-65
2023/04/04 06:04:05;;;;;;;10.93;5.18;;;1.40;99.90;;;;;;5059234;28;20094;-65
2023/04/04 06:06:34;;;;;;;9.40;5.00;;;1.40;99.90;;;;;;5064341;28;20041;-65
2023/04/04 06:09:00;;;;;;;10.88;5.20;;;1.50;99.90;;;;;;5060271;28;20515;-66
2023/04/04 06:11:26;;;;;;;8.85;4.90;;;1.40;99.90;;;;;;5063333;28;20119;-65
2023/04/04 06:13:53;;;;;;;9.35;4.90;;;1.50;99.90;;;;;;5061542;28;20124;-65
2023/04/04 06:16:19;;;;;;;11.00;5.00;;;1.60;99.90;;;;;;5058851;28;20120;-65
2023/04/04 06:18:45;;;;;;;10.13;5.03;;;1.70;99.90;;;;;;5060608;28;20072;-65
2023/04/04 06:21:12;;;;;;;9.98;4.50;;;1.70;99.90;;;;;;5068227;28;20086;-65
2023/04/04 06:23:38;;;;;;;9.65;4.93;;;1.80;99.90;;;;;;5071818;28;20049;-65
2023/04/04 06:26:04;;;;;;;8.40;4.28;;;1.80;99.90;;;;;;5064216;28;20036;-65
2023/04/04 06:28:29;;;;;;;8.93;4.30;;;1.90;99.90;;;;;;5070999;28;20045;-65
2023/04/04 06:30:55;;;;;;;8.38;3.97;;;2.00;99.90;;;;;;5066633;28;20121;-65
2023/04/04 06:33:20;;;;;;;8.60;4.65;;;2.00;99.90;;;;;;5070854;28;20041;-65
2023/04/04 06:35:46;;;;;;;8.40;4.25;;;2.10;99.90;;;;;;5071589;28;20043;-65
2023/04/04 06:38:12;;;;;;;10.05;4.95;;;2.10;99.90;;;;;;5063778;28;20041;-65
2023/04/04 06:40:37;;;;;;;10.30;4.47;;;2.20;99.90;;;;;;5070202;28;20064;-65
2023/04/04 06:43:03;;;;;;;10.63;4.60;;;2.30;99.90;;;;;;5069127;28;20044;-65
2023/04/04 06:45:32;;;;;;;6.78;4.07;;;2.30;99.90;;;;;;5065030;28;20488;-65
2023/04/04 06:47:58;;;;;;;8.52;4.28;;;2.30;99.90;;;;;;5070967;28;20479;-65
2023/04/04 06:50:23;;;;;;;9.45;4.03;;;2.30;99.90;;;;;;5063586;28;20066;-65
2023/04/04 06:52:50;;;;;;;8.75;4.32;;;2.30;99.90;;;;;;5071543;28;20519;-65
2023/04/04 06:55:16;;;;;;;11.57;4.35;;;2.40;99.90;;;;;;5064589;28;20053;-66
2023/04/04 06:57:42;;;;;;;8.32;4.53;;;2.50;99.90;;;;;;5051621;28;20048;-66
2023/04/04 07:00:09;;;;;;;9.07;4.20;;;2.50;99.90;;;;;;5063553;28;20037;-65
2023/04/04 07:02:35;;;;;;;8.90;4.40;;;2.60;99.90;;;;;;5063016;28;20036;-65
2023/04/04 07:05:02;;;;;;;7.85;3.80;;;2.70;99.90;;;;;;5071055;28;20562;-66
2023/04/04 07:07:28;;;;;;;8.25;4.10;;;2.70;99.90;;;;;;5070839;28;20124;-65
2023/04/04 07:09:54;;;;;;;9.13;3.72;;;2.90;99.90;;;;;;5070010;28;20119;-65
2023/04/04 07:12:20;;;;;;;7.75;3.70;;;3.00;99.90;;;;;;5061745;28;20116;-65
2023/04/04 07:14:46;;;;;;;7.72;3.38;;;3.20;99.90;;;;;;5070815;28;20155;-65
2023/04/04 07:17:12;;;;;;;10.15;3.83;;;3.30;99.90;;;;;;5065378;28;20046;-66
2023/04/04 07:19:37;;;;;;;9.35;3.75;;;3.50;99.90;;;;;;5065198;28;20033;-65
2023/04/04 07:22:03;;;;;;;8.30;3.35;;;3.50;99.90;;;;;;5070786;28;20044;-66
2023/04/04 07:24:28;;;;;;;6.63;3.42;;;3.60;99.90;;;;;;5068384;28;20047;-65
2023/04/04 07:26:54;;;;;;;8.68;3.50;;;3.60;99.90;;;;;;5070734;28;20032;-65
2023/04/04 07:29:20;;;;;;;10.50;3.60;;;3.70;99.90;;;;;;5065283;28;20440;-65
2023/04/04 07:31:46;;;;;;;7.50;3.33;;;3.80;99.90;;;;;;5070588;28;20048;-65
2023/04/04 07:34:12;;;;;;;7.03;3.60;;;3.90;99.90;;;;;;5057101;28;20176;-65
2023/04/04 07:36:38;;;;;;;5.97;2.80;;;4.00;99.90;;;;;;5066771;28;20071;-66
2023/04/04 07:39:03;;;;;;;7.65;3.35;;;4.10;99.90;;;;;;5069346;28;20822;-66
2023/04/04 07:41:29;;;;;;;6.78;3.10;;;4.20;99.90;;;;;;5067483;28;20497;-65
2023/04/04 07:43:55;;;;;;;8.27;3.00;;;4.40;99.90;;;;;;5070598;28;20051;-66
2023/04/04 07:46:21;;;;;;;7.03;3.10;;;4.50;99.90;;;;;;5067347;28;20376;-65
2023/04/04 07:48:46;;;;;;;6.75;2.85;;;4.70;99.90;;;;;;5070723;28;20040;-66
2023/04/04 07:51:12;;;;;;;5.95;2.90;;;4.80;99.90;;;;;;5064861;28;20700;-66
2023/04/04 07:53:38;;;;;;;5.53;2.47;;;5.00;99.90;;;;;;5069558;28;20037;-66
2023/04/04 07:56:07;;;;;;;6.15;2.70;;;5.00;99.90;;;;;;5069395;28;20120;-66
2023/04/04 07:58:33;;;;;;;8.18;2.60;;;5.10;99.90;;;;;;5069096;28;20047;-65
2023/04/04 08:01:00;;;;;;;6.47;3.17;;;5.20;99.90;;;;;;5061816;28;20203;-66
2023/04/04 08:03:25;;;;;;;6.78;2.63;;;5.30;99.90;;;;;;5069013;28;20041;-66
2023/04/04 08:05:51;;;;;;;7.07;2.65;;;5.40;99.90;;;;;;5062767;28;20032;-66
2023/04/04 08:08:16;;;;;;;6.57;2.60;;;5.50;99.90;;;;;;5064818;28;20600;-66
2023/04/04 08:10:45;;;;;;;6.85;2.92;;;5.60;99.90;;;;;;5063683;28;20415;-66
2023/04/04 08:13:11;;;;;;;5.65;2.72;;;5.70;99.90;;;;;;5051156;28;20051;-66
2023/04/04 08:15:37;;;;;;;7.55;2.65;;;5.80;99.90;;;;;;5069645;28;20464;-65
2023/04/04 08:18:03;;;;;;;8.30;3.10;;;5.90;99.90;;;;;;5070011;28;20432;-65
2023/04/04 08:20:29;;;;;;;6.45;2.72;;;6.00;99.90;;;;;;5067859;28;20064;-66
2023/04/04 08:22:55;;;;;;;6.18;3.03;;;6.10;99.90;;;;;;5070000;28;20036;-66
2023/04/04 08:25:20;;;;;;;5.18;2.58;;;6.20;99.90;;;;;;5068958;28;20107;-65
2023/04/04 08:27:46;;;;;;;6.65;2.97;;;6.20;99.90;;;;;;5067486;28;20123;-65
2023/04/04 08:30:13;;;;;;;4.65;2.28;;;6.30;99.90;;;;;;5063513;28;20032;-66
2023/04/04 08:32:40;;;;;;;7.22;2.47;;;6.40;99.90;;;;;;5069382;28;20093;-66
2023/04/04 08:35:07;;;;;;;5.10;2.30;;;6.50;99.90;;;;;;5067470;28;20420;-66
2023/04/04 08:37:34;;;;;;;5.18;1.90;;;6.60;99.90;;;;;;5068701;28;20041;-66
2023/04/04 08:40:00;;;;;;;6.15;2.47;;;6.70;99.90;;;;;;5068788;28;20048;-66
2023/04/04 08:42:29;;;;;;;6.03;2.33;;;6.70;99.90;;;;;;5055369;28;20052;-66
2023/04/04 08:44:58;;;;;;;7.25;2.20;;;6.80;99.90;;;;;;5056607;28;20045;-66
2023/04/04 08:47:25;;;;;;;4.80;2.03;;;6.90;99.90;;;;;;5062933;28;20060;-66
2023/04/04 08:49:53;;;;;;;5.22;2.20;;;6.90;99.90;;;;;;5056279;28;20377;-66
2023/04/04 08:52:21;;;;;;;6.82;2.10;;;6.90;99.90;;;;;;5068783;28;20140;-66
2023/04/04 08:54:49;;;;;;;5.85;1.85;;;6.90;99.90;;;;;;5065048;28;20064;-66
2023/04/04 08:57:15;;;;;;;4.15;1.80;;;6.80;99.90;;;;;;5070115;28;20247;-66
2023/04/04 08:59:41;;;;;;;4.85;1.70;;;6.90;99.90;;;;;;5073800;28;20048;-66
2023/04/04 09:02:10;;;;;;;3.70;1.80;;;6.90;99.90;;;;;;5073191;28;20040;-66
2023/04/04 09:04:38;;;;;;;5.13;2.22;;;7.00;99.90;;;;;;5067738;28;20049;-65
2023/04/04 09:07:05;;;;;;;4.28;1.90;;;7.00;99.90;;;;;;5065197;28;20049;-66
2023/04/04 09:09:32;;;;;;;5.00;1.90;;;7.10;99.90;;;;;;5065195;28;20151;-66
2023/04/04 09:12:00;;;;;;;7.00;2.05;;;7.10;99.90;;;;;;5084219;28;20128;-66
2023/04/04 09:14:27;;;;;;;5.75;2.08;;;7.20;99.90;;;;;;5072131;28;20269;-65
2023/04/04 09:16:52;;;;;;;4.72;1.92;;;7.30;99.90;;;;;;5067435;28;20429;-66
2023/04/04 09:19:18;;;;;;;5.35;1.80;;;7.40;99.90;;;;;;5073096;28;20085;-66
2023/04/04 09:21:49;;;;;;;5.72;2.17;;;7.40;99.90;;;;;;5069366;28;20113;-66
2023/04/04 09:24:15;;;;;;;7.57;2.40;;;7.50;99.90;;;;;;5070197;28;20387;-66
2023/04/04 09:26:52;;;;;;;6.03;2.00;;;7.40;99.90;;;;;;5069625;28;20044;-66
2023/04/04 09:29:21;;;;;;;4.47;1.73;;;7.40;99.90;;;;;;5059904;28;20492;-66
2023/04/04 09:31:50;;;;;;;5.38;1.90;;;7.50;99.90;;;;;;5068235;28;20036;-66
2023/04/04 09:34:18;;;;;;;5.22;1.92;;;7.60;99.90;;;;;;5072018;28;20095;-66
2023/04/04 09:36:44;;;;;;;6.07;1.83;;;7.60;99.90;;;;;;5072415;28;20045;-66
2023/04/04 09:39:11;;;;;;;4.38;1.45;;;7.70;99.90;;;;;;5071866;28;20037;-65
2023/04/04 09:41:38;;;;;;;4.68;1.83;;;7.70;99.90;;;;;;5068131;28;20048;-66
2023/04/04 09:44:06;;;;;;;6.00;1.90;;;7.70;99.90;;;;;;5072673;28;20466;-66
2023/04/04 09:46:34;;;;;;;5.35;1.60;;;7.80;99.90;;;;;;5062224;28;20127;-65
2023/04/04 09:49:00;;;;;;;6.05;1.88;;;7.90;99.90;;;;;;5060323;28;20040;-66
2023/04/04 09:51:34;;;;;;;4.80;1.95;;;7.90;99.90;;;;;;5066107;28;20059;-66
2023/04/04 09:54:00;;;;;;;5.28;1.75;;;8.00;99.60;;;;;;5070310;28;20079;-66
2023/04/04 09:56:26;;;;;;;4.75;1.83;;;8.00;99.90;;;;;;5071147;28;20086;-65
2023/04/04 09:58:53;;;;;;;6.65;2.10;;;8.10;99.90;;;;;;5071308;28;20040;-66
2023/04/04 10:01:18;;;;;;;6.18;2.38;;;8.10;99.60;;;;;;5060742;28;20084;-66
2023/04/04 10:03:54;;;;;;;6.00;2.10;;;8.20;99.50;;;;;;5072528;28;20075;-65
2023/04/04 10:06:20;;;;;;;5.22;2.00;;;8.40;99.20;;;;;;5059606;28;20136;-66
2023/04/04 10:08:47;;;;;;;5.15;2.15;;;8.30;95.10;;;;;;5071108;28;20032;-65
2023/04/04 10:11:25;;;;;;;6.47;1.85;;;8.40;97.30;;;;;;5069857;28;20071;-65
2023/04/04 10:13:51;;;;;;;6.68;2.30;;;8.40;97.90;;;;;;5065984;28;20037;-66
2023/04/04 10:16:17;;;;;;;5.90;2.10;;;8.40;97.50;;;;;;5054133;28;20155;-66
2023/04/04 10:18:43;;;;;;;7.70;2.40;;;8.50;98.30;;;;;;5057618;28;20037;-66
2023/04/04 10:21:09;;;;;;;4.40;1.98;;;8.50;98.90;;;;;;5058841;28;20043;-66
2023/04/04 10:23:35;;;;;;;4.78;1.90;;;8.50;98.00;;;;;;5056177;28;20037;-65
2023/04/04 10:26:01;;;;;;;6.18;2.40;;;8.50;98.40;;;;;;5057173;28;20048;-65
2023/04/04 10:28:27;;;;;;;5.70;2.10;;;8.60;98.40;;;;;;5058480;28;20090;-65
2023/04/04 10:31:12;;;;;;;5.30;2.08;;;8.60;98.10;;;;;;5072031;28;20119;-65
2023/04/04 10:34:08;;;;;;;5.68;2.20;;;8.70;96.70;;;;;;5052984;28;20048;-66
2023/04/04 10:36:50;;;;;;;7.78;2.22;;;8.70;96.20;;;;;;5068971;28;20082;-66
2023/04/04 10:39:26;;;;;;;4.15;1.95;;;8.70;96.00;;;;;;5058223;28;20132;-66
2023/04/04 10:41:53;;;;;;;5.45;2.05;;;8.70;96.00;;;;;;5069470;28;20111;-65
2023/04/04 10:44:28;;;;;;;5.30;2.13;;;8.70;94.90;;;;;;5058353;28;20050;-66
2023/04/04 10:46:57;;;;;;;6.00;2.40;;;8.70;95.60;;;;;;5072024;28;20071;-66
2023/04/04 10:49:23;;;;;;;6.50;2.33;;;8.80;96.00;;;;;;5064715;28;20036;-66
2023/04/04 10:51:51;;;;;;;6.40;2.20;;;8.90;95.20;;;;;;5074883;28;20051;-65
2023/04/04 10:54:17;;;;;;;6.82;2.20;;;9.00;95.30;;;;;;5069542;28;20041;-65
2023/04/04 10:56:43;;;;;;;5.03;2.30;;;9.10;95.40;;;;;;5070833;28;20044;-65
2023/04/04 10:59:14;;;;;;;4.18;1.80;;;9.00;95.30;;;;;;5070540;28;20044;-65
2023/04/04 11:02:06;;;;;;;5.88;2.20;;;9.00;94.60;;;;;;5071446;28;20052;-65
2023/04/04 11:04:37;;;;;;;4.72;2.13;;;9.00;94.10;;;;;;5069934;28;20067;-65
2023/04/04 11:07:11;;;;;;;7.78;2.35;;;9.10;95.00;;;;;;5074157;28;20044;-65
2023/04/04 11:09:50;;;;;;;6.05;2.20;;;9.30;94.90;;;;;;5069047;28;20044;-65
2023/04/04 11:12:20;;;;;;;5.90;2.25;;;9.50;94.70;;;;;;5070575;28;20055;-65
2023/04/04 11:15:01;;;;;;;5.38;2.17;;;9.40;94.90;;;;;;5070496;28;21731;-66
2023/04/04 11:17:48;;;;;;;5.25;2.20;;;9.60;95.10;;;;;;5067037;28;20076;-65
2023/04/04 11:20:15;;;;;;;6.55;2.35;;;9.70;94.30;;;;;;5073818;28;20085;-65
2023/04/04 11:22:41;;;;;;;6.40;2.53;;;9.80;94.70;;;;;;5074058;28;20044;-65
2023/04/04 11:25:31;;;;;;;4.43;2.08;;;9.80;91.60;;;;;;5066838;28;20488;-65
2023/04/04 11:27:57;;;;;;;5.30;1.92;;;9.90;92.70;;;;;;5070813;28;20048;-65
2023/04/04 11:30:25;;;;;;;7.13;2.42;;;9.90;93.10;;;;;;5053988;28;20130;-66
2023/04/04 11:32:50;;;;;;;8.52;2.28;;;10.00;92.90;;;;;;5071134;28;20037;-66
2023/04/04 11:35:16;;;;;;;8.95;2.40;;;10.10;93.00;;;;;;5069236;28;20040;-66
2023/04/04 11:37:54;;;;;;;5.57;2.30;;;10.20;92.90;;;;;;5071212;28;20051;-66
2023/04/04 11:40:21;;;;;;;4.63;2.13;;;10.20;91.40;;;;;;5057205;28;21403;-66
2023/04/04 11:42:52;;;;;;;4.50;2.08;;;10.40;92.20;;;;;;5063043;28;20056;-66
2023/04/04 11:45:18;;;;;;;7.70;2.17;;;10.30;90.00;;;;;;5053815;28;20040;-65
2023/04/04 11:47:48;;;;;;;6.80;2.75;;;10.40;90.10;;;;;;5070009;28;20422;-66
2023/04/04 11:50:15;;;;;;;7.90;2.30;;;10.40;88.50;;;;;;5066468;28;20051;-66
2023/04/04 11:52:41;;;;;;;7.82;2.75;;;10.50;89.40;;;;;;5070181;28;20048;-66
2023/04/04 11:55:23;;;;;;;7.97;2.47;;;10.50;84.70;;;;;;5068932;28;20044;-66
2023/04/04 11:57:50;;;;;;;7.45;2.30;;;10.50;84.80;;;;;;5065290;28;20425;-66
2023/04/04 12:00:35;;;;;;;6.60;2.40;;;10.70;88.60;;;;;;5055612;28;20055;-66
2023/04/04 12:03:03;;;;;;;;;;;10.80;87.40;;;;;;5066279;28;20443;-66
2023/04/04 12:05:29;;;;;;;5.78;2.20;;;11.00;86.90;;;;;;5070388;28;19920;-66
2023/04/04 12:07:55;;;;;;;4.57;2.25;;;11.00;83.90;;;;;;5067701;28;20056;-66
2023/04/04 12:10:21;;;;;;;4.72;2.33;;;10.90;81.70;;;;;;5059107;28;20037;-66
2023/04/04 12:12:47;;;;;;;5.63;2.40;;;10.90;82.40;;;;;;5063119;28;20036;-66
2023/04/04 12:15:13;;;;;;;6.93;2.50;;;10.80;82.40;;;;;;5068595;28;20102;-66
2023/04/04 12:17:40;;;;;;;4.65;2.05;;;10.90;80.40;;;;;;5069541;28;20503;-66
2023/04/04 12:20:09;;;;;;;5.13;2.33;;;10.90;80.80;;;;;;5069042;28;20143;-66
2023/04/04 12:22:35;;;;;;;6.05;2.75;;;10.80;77.30;;;;;;5067272;28;20052;-66
2023/04/04 12:25:01;;;;;;;6.82;2.50;;;10.80;81.00;;;;;;5059150;28;20052;-66
2023/04/04 12:27:28;;;;;;;7.82;2.63;;;10.90;81.50;;;;;;5069044;28;20052;-66
2023/04/04 12:29:55;;;;;;;4.47;1.88;;;10.90;80.20;;;;;;5069287;28;20051;-66
2023/04/04 12:32:21;;;;;;;5.57;2.42;;;11.10;81.50;;;;;;5067862;28;20060;-66
2023/04/04 12:34:47;;;;;;;6.10;2.40;;;11.10;79.90;;;;;;5068790;28;20040;-66
2023/04/04 12:37:15;;;;;;;6.57;2.60;;;11.10;79.70;;;;;;5069665;28;20352;-66
2023/04/04 12:39:49;;;;;;;4.75;2.50;;;11.10;79.10;;;;;;5069114;28;20052;-66
2023/04/04 12:42:22;;;;;;;6.63;2.38;;;11.10;77.10;;;;;;5067085;28;20359;-67
2023/04/04 12:44:50;;;;;;;6.90;2.40;;;11.20;78.30;;;;;;5065181;28;20167;-66
2023/04/04 12:47:17;;;;;;;5.18;2.40;;;11.10;76.90;;;;;;5060828;28;20045;-66
2023/04/04 12:49:47;;;;;;;5.65;2.35;;;11.00;76.50;;;;;;5066730;28;20201;-66
2023/04/04 12:52:19;;;;;;;5.30;2.13;;;10.90;77.50;;;;;;5068071;28;20120;-66
2023/04/04 12:54:45;;;;;;;5.60;2.30;;;10.90;76.70;;;;;;5067326;28;20051;-67